Time;durP1;ratioP1;P1;durP2;ratioP2;P2;SDS_P1;SDS_P2;PMS_P1;PMS_P2;Temp;Humidity;BMP_temperature;BMP_pressure;BME280_temperature;BME280_humidity;BME280_pressure;Samples;Min_cycle;Max_cycle;Signal;HPM_P1;HPM_P2
2022/12/29 00:01:15;;;;;;;4.38;2.50;;;;;;;9.66;100.00;100081.41;4957172;29;20020;-79
2022/12/29 00:03:40;;;;;;;2.92;2.15;;;;;;;9.50;100.00;100037.00;4940091;29;20035;-79
2022/12/29 00:06:06;;;;;;;4.40;2.67;;;;;;;9.48;100.00;100038.88;4956968;29;20038;-79
2022/12/29 00:08:40;;;;;;;6.05;2.50;;;;;;;9.58;100.00;100059.69;4957177;29;20023;-79
2022/12/29 00:11:11;;;;;;;6.43;2.67;;;;;;;9.57;100.00;100048.53;4957340;29;20059;-79
2022/12/29 00:16:21;;;;;;;3.10;1.90;;;;;;;9.59;100.00;100040.69;4957282;29;20070;-79
2022/12/29 00:18:47;;;;;;;2.53;1.70;;;;;;;9.37;100.00;100003.56;4956878;29;20054;-79
2022/12/29 00:35:10;;;;;;;4.13;1.23;;;;;;;9.17;100.00;100023.00;4957187;29;20138;-80
2022/12/29 00:46:14;;;;;;;2.47;0.90;;;;;;;8.83;100.00;100006.47;4916010;29;20111;-80
2022/12/29 00:51:23;;;;;;;2.38;0.95;;;;;;;8.57;100.00;99972.25;4916203;29;20058;-80
2022/12/29 00:53:49;;;;;;;2.25;1.13;;;;;;;8.37;100.00;99946.25;4916272;29;20032;-80
2022/12/29 00:56:14;;;;;;;3.83;1.20;;;;;;;8.69;100.00;99993.75;4916286;29;20039;-80
2022/12/29 00:58:39;;;;;;;3.63;1.27;;;;;;;8.73;100.00;99997.75;4916045;29;20056;-80
2022/12/29 01:01:06;;;;;;;2.38;1.40;;;;;;;8.77;100.00;100004.34;4915735;29;20029;-80
2022/12/29 01:03:33;;;;;;;2.47;1.50;;;;;;;8.78;100.00;99997.44;4916130;29;20032;-80
2022/12/29 01:06:03;;;;;;;4.20;1.63;;;;;;;8.76;100.00;99984.69;4916005;29;20036;-80
2022/12/29 01:08:29;;;;;;;3.30;1.63;;;;;;;8.76;100.00;99978.72;4916022;29;20032;-80
2022/12/29 01:11:09;;;;;;;3.50;2.10;;;;;;;8.74;100.00;99976.22;4925723;29;20182;-80
2022/12/29 01:13:35;;;;;;;3.47;1.88;;;;;;;8.75;100.00;99975.31;4955923;29;20027;-81
2022/12/29 01:16:01;;;;;;;2.90;2.10;;;;;;;8.76;100.00;99960.69;4955967;29;20042;-79
2022/12/29 01:18:26;;;;;;;4.32;2.45;;;;;;;8.77;100.00;99965.75;4956079;29;20027;-80
2022/12/29 01:21:02;;;;;;;4.07;2.67;;;;;;;8.77;100.00;99958.00;4955952;29;20483;-80
2022/12/29 01:23:29;;;;;;;4.25;2.45;;;;;;;8.84;100.00;99963.53;4955927;29;20061;-80
2022/12/29 01:25:54;;;;;;;6.05;2.33;;;;;;;8.88;100.00;99955.50;4955816;29;20442;-80
2022/12/29 01:28:19;;;;;;;3.45;2.28;;;;;;;8.81;100.00;99943.16;4955658;29;20059;-80
2022/12/29 01:30:45;;;;;;;2.47;2.03;;;;;;;9.02;100.00;99961.44;4955499;29;20150;-80
2022/12/29 01:33:10;;;;;;;3.50;2.10;;;;;;;9.10;100.00;99969.47;4955738;29;20031;-80
2022/12/29 01:35:35;;;;;;;4.22;2.13;;;;;;;9.10;100.00;99954.00;4955812;29;20070;-80
2022/12/29 01:38:01;;;;;;;3.88;1.85;;;;;;;9.11;100.00;99953.88;4955605;29;20102;-80
2022/12/29 01:40:27;;;;;;;3.28;1.88;;;;;;;8.93;100.00;99921.72;4955488;29;20027;-80
2022/12/29 01:42:54;;;;;;;3.45;1.75;;;;;;;9.11;100.00;99943.59;4937841;29;20435;-80
2022/12/29 01:45:19;;;;;;;4.07;1.77;;;;;;;9.11;100.00;99928.13;4955181;29;20038;-79
2022/12/29 01:47:47;;;;;;;3.30;1.75;;;;;;;9.12;100.00;99923.81;4955318;29;20031;-81
2022/12/29 01:50:27;;;;;;;3.88;1.60;;;;;;;9.19;100.00;99927.59;4955249;29;20035;-80
2022/12/29 01:53:05;;;;;;;3.58;1.23;;;;;;;9.11;100.00;99911.84;4955245;29;20486;-80
2022/12/29 01:55:36;;;;;;;3.03;1.20;;;;;;;9.35;100.00;99933.31;4955536;29;20026;-82
2022/12/29 01:58:04;;;;;;;1.58;1.10;;;;;;;9.39;100.00;99946.78;4954477;28;20031;-80
2022/12/29 02:00:30;;;;;;;3.15;1.30;;;;;;;9.47;100.00;99940.13;4955346;29;20054;-80
2022/12/29 02:02:55;;;;;;;2.72;0.95;;;;;;;9.48;100.00;99936.63;4955178;29;20415;-79
2022/12/29 02:05:28;;;;;;;3.38;1.00;;;;;;;9.54;100.00;99948.25;4955166;29;20030;-80
2022/12/29 02:07:54;;;;;;;4.32;1.05;;;;;;;9.49;100.00;99919.41;4954904;29;20489;-79
2022/12/29 02:10:26;;;;;;;3.92;1.08;;;;;;;9.61;100.00;99946.84;4954948;29;20023;-80
2022/12/29 02:12:52;;;;;;;2.10;1.05;;;;;;;9.47;100.00;99929.84;4955145;29;20111;-79
2022/12/29 02:15:34;;;;;;;4.05;1.10;;;;;;;9.65;100.00;99947.47;4954913;29;20027;-80
2022/12/29 02:18:18;;;;;;;3.75;1.05;;;;;;;9.70;100.00;99942.78;4955145;29;20035;-80
2022/12/29 02:21:14;;;;;;;5.45;1.50;;;;;;;9.70;100.00;99951.34;4955008;29;20042;-79
2022/12/29 02:24:18;;;;;;;5.78;0.90;;;;;;;9.64;100.00;99948.41;4954769;29;20105;-80
2022/12/29 02:26:43;;;;;;;2.72;1.00;;;;;;;9.74;100.00;99955.34;4954899;29;20031;-80
2022/12/29 02:29:30;;;;;;;4.28;0.80;;;;;;;9.48;100.00;99892.81;4954457;29;20023;-80
2022/12/29 02:31:59;;;;;;;6.32;1.52;;;;;;;9.81;100.00;99939.41;4954592;29;20380;-79
2022/12/29 02:34:30;;;;;;;4.53;1.10;;;;;;;9.79;100.00;99939.53;4954902;29;20035;-79
2022/12/29 02:36:58;;;;;;;3.03;0.98;;;;;;;9.84;100.00;99941.78;4954629;29;20031;-79
2022/12/29 02:39:50;;;;;;;2.55;0.95;;;;;;;9.69;100.00;99917.94;4954439;29;20034;-81
2022/12/29 02:43:00;;;;;;;3.47;0.98;;;;;;;9.86;100.00;99939.91;4954865;29;20023;-79
2022/12/29 02:45:44;;;;;;;3.83;1.20;;;;;;;9.89;100.00;99943.06;4876628;29;20172;-79
2022/12/29 02:48:44;;;;;;;3.72;1.10;;;;;;;9.90;100.00;99933.56;4876846;29;20056;-81
2022/12/29 02:51:19;;;;;;;4.25;1.02;;;;;;;9.78;100.00;99930.97;4821816;29;20038;-81
2022/12/29 02:56:29;;;;;;;4.18;1.00;;;;;;;9.81;100.00;99939.41;4822033;29;20034;-80
2022/12/29 02:58:55;;;;;;;4.30;1.17;;;;;;;9.65;100.00;99925.09;4821708;29;20519;-80
2022/12/29 03:01:32;;;;;;;5.40;1.13;;;;;;;9.77;100.00;99931.91;4821673;29;20058;-80
2022/12/29 03:04:34;;;;;;;3.03;1.00;;;;;;;9.75;100.00;99927.81;4821574;29;20031;-80
2022/12/29 03:07:09;;;;;;;;;;;;;;;9.75;100.00;99928.63;4821942;29;20091;-80
2022/12/29 03:09:47;;;;;;;3.05;1.02;;;;;;;9.76;100.00;99924.31;4823984;29;19924;-80
2022/12/29 03:18:25;;;;;;;3.92;1.08;;;;;;;9.62;100.00;99904.66;4825097;29;20053;-79
2022/12/29 03:20:55;;;;;;;3.50;1.08;;;;;;;9.74;100.00;99921.03;4829590;29;20400;-81
2022/12/29 03:23:24;;;;;;;4.32;1.08;;;;;;;9.57;100.00;99905.97;4880184;29;20037;-80
2022/12/29 03:25:55;;;;;;;4.22;1.20;;;;;;;9.63;100.00;99921.78;4940592;29;20103;-80
2022/12/29 03:28:25;;;;;;;3.97;1.13;;;;;;;9.51;100.00;99903.81;4958152;29;20019;-80
2022/12/29 03:30:50;;;;;;;4.82;1.20;;;;;;;9.62;100.00;99924.47;4957911;28;20507;-80
2022/12/29 03:33:22;;;;;;;2.67;0.60;;;;;;;9.29;100.00;99869.31;4958137;29;20027;-79
2022/12/29 03:35:49;;;;;;;;;;;;;;;9.61;100.00;99909.94;4958213;29;20031;-80
2022/12/29 03:38:24;;;;;;;4.03;1.63;;;;;;;9.57;100.00;99924.00;4957667;29;19914;-79
2022/12/29 03:40:55;;;;;;;2.35;1.00;;;;;;;9.23;100.00;99874.91;4957641;29;20362;-82
2022/12/29 03:43:21;;;;;;;4.45;0.90;;;;;;;9.39;100.00;99892.66;4957911;29;20019;-82
2022/12/29 03:45:46;;;;;;;4.60;1.00;;;;;;;9.45;100.00;99928.31;4957660;29;20082;-80
2022/12/29 03:48:11;;;;;;;3.97;1.00;;;;;;;9.20;100.00;99885.44;4957620;29;20467;-80
2022/12/29 03:50:37;;;;;;;5.32;1.05;;;;;;;9.31;100.00;99907.84;4957607;29;20031;-80
2022/12/29 03:53:02;;;;;;;5.03;1.25;;;;;;;9.26;100.00;99895.31;4957553;29;20042;-82
2022/12/29 03:55:27;;;;;;;4.93;0.90;;;;;;;9.39;100.00;99908.94;4957360;29;20020;-80
2022/12/29 03:57:53;;;;;;;5.07;1.17;;;;;;;9.35;100.00;99930.72;4957662;29;20050;-80
2022/12/29 04:00:18;;;;;;;2.88;0.98;;;;;;;9.24;100.00;99925.50;4957580;29;20031;-81
2022/12/29 04:02:43;;;;;;;2.72;1.10;;;;;;;9.35;100.00;99912.69;4957310;29;20034;-79
2022/12/29 04:05:08;;;;;;;2.85;1.00;;;;;;;9.41;100.00;99930.25;4957126;29;20045;-80
2022/12/29 04:07:34;;;;;;;3.90;0.93;;;;;;;9.37;100.00;99931.44;4957499;29;20027;-80
2022/12/29 04:09:59;;;;;;;3.00;0.85;;;;;;;9.07;100.00;99887.28;4956982;29;20035;-82
2022/12/29 04:12:24;;;;;;;4.07;1.58;;;;;;;9.41;100.00;99952.63;4956004;29;20125;-78
2022/12/29 04:14:50;;;;;;;3.63;1.10;;;;;;;9.38;100.00;99935.66;4957110;29;20110;-79
2022/12/29 04:17:15;;;;;;;4.35;1.02;;;;;;;9.39;100.00;99934.72;4957010;29;20066;-79
2022/12/29 04:19:40;;;;;;;3.95;0.90;;;;;;;9.37;100.00;99938.34;4956614;28;20031;-79
2022/12/29 04:22:06;;;;;;;5.55;1.20;;;;;;;9.32;100.00;99946.38;4956806;29;20035;-79
2022/12/29 04:24:31;;;;;;;5.60;1.25;;;;;;;9.10;100.00;99934.22;4956437;29;20055;-79
2022/12/29 04:26:56;;;;;;;4.32;1.15;;;;;;;9.22;100.00;99950.53;4956880;29;20027;-80
2022/12/29 04:29:22;;;;;;;5.05;1.73;;;;;;;9.17;100.00;99948.31;4957187;29;20095;-80
2022/12/29 04:31:47;;;;;;;5.63;1.30;;;;;;;9.12;100.00;99942.66;4956444;29;20406;-82
2022/12/29 04:34:12;;;;;;;4.40;1.00;;;;;;;8.65;100.00;99884.19;4956801;29;20431;-81
2022/12/29 04:36:39;;;;;;;5.57;1.10;;;;;;;8.71;100.00;99914.66;4939226;29;20039;-80
2022/12/29 04:39:05;;;;;;;7.63;1.15;;;;;;;8.73;100.00;99933.41;4956621;29;20051;-81
2022/12/29 04:41:30;;;;;;;7.35;1.40;;;;;;;8.72;100.00;99928.38;4956728;29;20070;-80
2022/12/29 04:43:56;;;;;;;4.20;0.95;;;;;;;8.94;100.00;99950.84;4956523;29;20487;-81
2022/12/29 04:46:21;;;;;;;4.47;1.10;;;;;;;8.91;100.00;99945.00;4956487;29;20032;-81
2022/12/29 04:48:46;;;;;;;5.32;1.40;;;;;;;8.89;100.00;99949.44;4956458;29;20062;-80
2022/12/29 04:51:12;;;;;;;4.25;1.00;;;;;;;8.54;100.00;99907.28;4956546;29;20039;-80
2022/12/29 04:53:38;;;;;;;3.25;1.08;;;;;;;8.61;100.00;99949.69;4956506;29;20028;-80
2022/12/29 04:56:03;;;;;;;6.90;1.50;;;;;;;8.54;100.00;99956.19;4956357;29;20424;-80
2022/12/29 04:58:29;;;;;;;7.32;1.00;;;;;;;8.52;100.00;99964.00;4956372;29;20077;-81
2022/12/29 05:00:54;;;;;;;6.03;1.10;;;;;;;8.69;100.00;99995.50;4956207;29;20031;-81
2022/12/29 05:03:19;;;;;;;4.15;1.00;;;;;;;8.67;100.00;99990.47;4956279;29;20158;-80
2022/12/29 05:05:45;;;;;;;7.00;1.52;;;;;;;8.72;100.00;100000.44;4956156;29;20071;-80
2022/12/29 05:08:10;;;;;;;5.70;1.42;;;;;;;8.59;100.00;99962.69;4956355;29;20054;-81
2022/12/29 05:10:35;;;;;;;5.32;1.35;;;;;;;8.68;100.00;100001.59;4956195;29;20110;-81
2022/12/29 05:13:01;;;;;;;6.53;1.20;;;;;;;8.53;100.00;99990.56;4955976;29;20027;-82
2022/12/29 05:15:26;;;;;;;7.10;1.45;;;;;;;8.25;100.00;99965.84;4955873;29;20467;-80
2022/12/29 05:17:52;;;;;;;8.60;1.33;;;;;;;8.50;100.00;100021.66;4955923;29;20035;-80
2022/12/29 05:20:18;;;;;;;5.22;1.20;;;;;;;8.48;100.00;100014.03;4938074;29;20090;-82
2022/12/29 05:22:43;;;;;;;6.90;1.60;;;;;;;8.49;100.00;100025.16;4956029;29;20037;-81
2022/12/29 05:25:09;;;;;;;8.30;1.77;;;;;;;8.40;100.00;100000.03;4955717;29;20383;-82
2022/12/29 05:27:34;;;;;;;8.30;2.08;;;;;;;8.61;100.00;100029.47;4955864;29;20065;-82
2022/12/29 05:29:59;;;;;;;5.30;1.20;;;;;;;8.64;100.00;100031.84;4955607;29;20023;-81
2022/12/29 05:32:25;;;;;;;5.72;1.10;;;;;;;8.70;100.00;100025.47;4955813;28;20058;-82
2022/12/29 05:34:50;;;;;;;5.68;1.20;;;;;;;8.74;100.00;100034.59;4955677;29;20036;-81
2022/12/29 05:37:16;;;;;;;6.93;1.35;;;;;;;8.77;100.00;100031.84;4955734;29;20054;-80
2022/12/29 05:39:41;;;;;;;4.43;1.23;;;;;;;8.80;100.00;100036.78;4955587;29;20510;-78
2022/12/29 05:42:06;;;;;;;10.15;1.80;;;;;;;8.83;100.00;100039.13;4955444;29;20024;-82
2022/12/29 05:44:32;;;;;;;6.60;1.33;;;;;;;8.78;100.00;100029.16;4955472;29;20386;-82
2022/12/29 05:46:57;;;;;;;7.25;1.52;;;;;;;8.84;100.00;100043.34;4955339;29;20023;-81
2022/12/29 05:49:22;;;;;;;9.93;1.27;;;;;;;8.81;100.00;100035.84;4955556;29;20025;-80
2022/12/29 05:51:48;;;;;;;7.45;1.70;;;;;;;8.67;99.79;100003.34;4955582;29;20019;-81
2022/12/29 05:54:13;;;;;;;5.50;1.30;;;;;;;8.89;99.98;100044.69;4955479;29;20031;-81
2022/12/29 05:56:38;;;;;;;5.40;1.13;;;;;;;8.92;99.77;100061.69;4955307;29;20039;-82
2022/12/29 05:59:04;;;;;;;6.78;1.20;;;;;;;8.91;99.10;100052.31;4955323;29;20055;-83
2022/12/29 06:01:29;;;;;;;6.78;1.25;;;;;;;8.77;99.25;100024.94;4937512;29;20066;-82
2022/12/29 06:03:54;;;;;;;5.68;1.30;;;;;;;8.67;98.90;100013.63;4955055;29;20387;-82
2022/12/29 06:06:20;;;;;;;8.20;1.55;;;;;;;8.76;98.27;100023.31;4955396;29;20027;-81
2022/12/29 06:08:45;;;;;;;6.75;1.15;;;;;;;8.95;97.44;100034.88;4955140;29;20031;-82
2022/12/29 06:11:10;;;;;;;3.83;1.00;;;;;;;8.80;97.19;100027.31;4954910;29;20038;-83
2022/12/29 06:13:36;;;;;;;4.95;0.98;;;;;;;9.05;97.09;100059.09;4955148;29;20028;-81
2022/12/29 06:16:01;;;;;;;4.25;1.10;;;;;;;8.82;96.64;100020.28;4954967;29;20054;-81
2022/12/29 06:18:27;;;;;;;5.20;1.10;;;;;;;8.99;95.88;100044.06;4954960;29;20050;-82
2022/12/29 06:20:53;;;;;;;7.65;1.50;;;;;;;9.01;95.93;100055.91;4954895;29;20086;-82
2022/12/29 06:23:18;;;;;;;7.13;1.45;;;;;;;8.93;96.33;100054.78;4954830;29;20483;-84
2022/12/29 06:25:44;;;;;;;9.35;1.88;;;;;;;8.84;95.84;100051.06;4954499;29;20368;-83
2022/12/29 06:28:10;;;;;;;6.03;1.17;;;;;;;8.83;96.54;100042.53;4954831;29;20177;-83
2022/12/29 06:30:36;;;;;;;4.43;0.80;;;;;;;8.76;96.94;100048.22;4954706;29;20547;-83
2022/12/29 06:33:01;;;;;;;7.10;1.73;;;;;;;8.74;96.58;100043.16;4954653;29;20114;-84
2022/12/29 06:35:27;;;;;;;8.65;1.58;;;;;;;8.71;96.17;100035.66;4954729;29;20046;-83
2022/12/29 06:37:52;;;;;;;6.22;1.20;;;;;;;8.82;96.03;100051.19;4954557;29;20185;-83
2022/12/29 06:40:18;;;;;;;5.15;1.20;;;;;;;8.77;95.88;100034.41;4954592;29;20035;-84
2022/12/29 06:42:43;;;;;;;6.00;1.10;;;;;;;8.55;96.70;100010.16;4954437;28;20027;-82
2022/12/29 06:45:09;;;;;;;7.35;1.52;;;;;;;8.62;96.83;100031.13;4954564;29;20379;-85
2022/12/29 06:47:35;;;;;;;3.17;0.98;;;;;;;8.57;97.43;100036.59;4954563;29;20027;-82
2022/12/29 06:50:00;;;;;;;6.15;1.27;;;;;;;8.71;97.55;100037.41;4954523;29;20379;-85
2022/12/29 06:52:26;;;;;;;6.88;1.20;;;;;;;8.78;96.58;100038.63;4954255;29;20024;-85
2022/12/29 06:54:51;;;;;;;6.47;1.17;;;;;;;8.84;96.26;100044.16;4954842;29;20036;-79
2022/12/29 06:57:16;;;;;;;8.13;1.65;;;;;;;8.85;96.24;100050.19;4954361;29;20015;-85
2022/12/29 06:59:42;;;;;;;8.43;1.45;;;;;;;8.85;96.04;100038.13;4954737;29;20453;-83
2022/12/29 07:02:13;;;;;;;5.28;1.10;;;;;;;8.90;95.29;100038.63;4954607;29;20099;-84
2022/12/29 07:04:38;;;;;;;6.78;1.20;;;;;;;8.88;94.77;100037.91;4954324;29;20031;-83
2022/12/29 07:07:03;;;;;;;6.25;1.35;;;;;;;8.85;95.76;100021.84;4954433;29;20035;-81
2022/12/29 07:09:29;;;;;;;7.53;1.83;;;;;;;9.01;94.86;100050.75;4954356;29;20020;-83
2022/12/29 07:11:54;;;;;;;6.38;1.33;;;;;;;8.86;94.98;100021.75;4954080;29;20035;-81
2022/12/29 07:14:19;;;;;;;5.78;1.35;;;;;;;8.85;94.62;100035.56;4954336;29;20027;-81
2022/12/29 07:16:45;;;;;;;6.18;1.80;;;;;;;9.12;94.14;100074.00;4954394;29;20023;-87
2022/12/29 07:19:10;;;;;;;6.82;1.40;;;;;;;9.12;94.02;100070.63;4954086;29;20102;-78
2022/12/29 07:21:35;;;;;;;7.18;1.10;;;;;;;9.09;94.56;100079.38;4954285;29;20031;-81
2022/12/29 07:24:00;;;;;;;6.65;1.38;;;;;;;9.08;93.24;100087.22;4954268;29;20031;-79
2022/12/29 07:26:26;;;;;;;7.25;1.83;;;;;;;8.85;93.21;100050.19;4954153;29;20023;-80
2022/12/29 07:28:51;;;;;;;7.75;2.38;;;;;;;8.98;93.32;100087.03;4954199;29;20156;-82
2022/12/29 07:31:20;;;;;;;10.25;1.52;;;;;;;8.83;92.23;100070.03;4954087;29;20114;-85
2022/12/29 07:33:46;;;;;;;8.10;1.95;;;;;;;8.95;92.23;100094.13;4953272;29;20479;-78
2022/12/29 07:36:12;;;;;;;10.10;1.73;;;;;;;8.92;92.15;100092.56;4954634;29;20410;-79
2022/12/29 07:38:38;;;;;;;10.85;2.03;;;;;;;8.79;92.26;100092.59;4954657;29;20054;-80
2022/12/29 07:41:04;;;;;;;7.68;1.80;;;;;;;8.54;91.56;100069.41;4953814;29;20035;-79
2022/12/29 07:43:29;;;;;;;7.32;1.90;;;;;;;8.47;91.75;100074.16;4954170;29;20051;-78
2022/12/29 07:45:54;;;;;;;10.13;1.92;;;;;;;8.59;91.74;100090.53;4953936;29;20035;-78
2022/12/29 07:48:20;;;;;;;9.63;1.52;;;;;;;8.58;91.19;100099.19;4953793;29;20027;-77
2022/12/29 07:50:46;;;;;;;9.52;1.65;;;;;;;8.57;91.83;100100.09;4953332;29;20019;-78
2022/12/29 07:53:11;;;;;;;10.50;2.10;;;;;;;8.51;91.78;100082.47;4936511;29;20039;-80
2022/12/29 07:55:36;;;;;;;7.90;1.58;;;;;;;8.68;91.27;100086.53;4955210;28;20038;-82
2022/12/29 07:58:02;;;;;;;7.93;1.75;;;;;;;8.83;91.24;100106.06;4939248;29;20043;-81
2022/12/29 08:00:27;;;;;;;12.15;1.88;;;;;;;8.67;90.82;100098.56;4957442;29;20034;-80
2022/12/29 08:02:53;;;;;;;8.55;1.85;;;;;;;8.93;90.82;100112.25;4957305;29;20027;-79
2022/12/29 08:05:18;;;;;;;6.47;1.63;;;;;;;8.99;90.32;100117.00;4957346;29;20031;-80
2022/12/29 08:07:45;;;;;;;8.05;1.75;;;;;;;9.03;90.18;100123.56;4957329;29;20607;-80
2022/12/29 08:10:11;;;;;;;10.15;1.95;;;;;;;8.80;90.83;100099.38;4957349;29;20042;-78
2022/12/29 08:12:40;;;;;;;13.07;2.35;;;;;;;8.84;91.54;100103.38;4957031;29;20027;-79
2022/12/29 08:15:07;;;;;;;9.60;2.15;;;;;;;8.98;91.42;100132.56;4956786;29;20035;-78
2022/12/29 08:17:32;;;;;;;8.57;2.10;;;;;;;8.97;91.60;100136.06;4957233;29;20491;-79
2022/12/29 08:19:58;;;;;;;12.73;2.22;;;;;;;8.97;91.70;100139.44;4957084;29;20110;-81
2022/12/29 08:22:23;;;;;;;8.25;1.52;;;;;;;8.97;91.80;100133.47;4957173;29;20059;-81
2022/12/29 08:24:48;;;;;;;8.45;1.83;;;;;;;8.91;91.10;100125.22;4957048;29;20039;-81
2022/12/29 08:27:14;;;;;;;10.00;1.95;;;;;;;8.97;90.53;100120.59;4956974;29;20031;-79
2022/12/29 08:29:40;;;;;;;8.75;1.90;;;;;;;8.77;90.77;100103.94;4957000;29;20027;-79
2022/12/29 08:32:06;;;;;;;10.63;2.00;;;;;;;8.94;89.98;100126.75;4956697;29;20047;-79
2022/12/29 08:34:32;;;;;;;11.05;2.25;;;;;;;9.04;89.94;100125.22;4957001;29;20028;-79
2022/12/29 08:36:57;;;;;;;10.25;2.25;;;;;;;9.06;89.35;100125.13;4956704;29;20070;-81
2022/12/29 08:39:22;;;;;;;13.20;1.90;;;;;;;8.91;88.28;100084.03;4956749;29;20184;-80
2022/12/29 08:41:48;;;;;;;11.00;1.90;;;;;;;9.20;87.55;100117.28;4956673;29;20030;-80
2022/12/29 08:44:13;;;;;;;8.32;2.28;;;;;;;9.16;87.20;100121.00;4956306;29;20031;-81
2022/12/29 08:46:39;;;;;;;8.68;1.95;;;;;;;9.35;85.85;100115.41;4956730;29;20034;-80
2022/12/29 08:49:04;;;;;;;9.02;1.70;;;;;;;9.38;85.66;100112.63;4956545;29;20020;-80
2022/12/29 08:51:30;;;;;;;9.75;2.35;;;;;;;9.53;85.03;100128.75;4956404;29;20050;-80
2022/12/29 08:53:55;;;;;;;9.68;1.75;;;;;;;9.36;84.98;100099.03;4956371;29;20042;-81
2022/12/29 08:56:20;;;;;;;9.20;1.52;;;;;;;9.52;84.50;100124.53;4956641;29;20045;-81
2022/12/29 08:58:46;;;;;;;8.60;1.70;;;;;;;9.48;84.99;100126.50;4956165;29;20390;-79
2022/12/29 09:01:11;;;;;;;10.05;1.80;;;;;;;9.52;84.46;100132.25;4939005;29;20031;-80
2022/12/29 09:03:36;;;;;;;10.32;1.77;;;;;;;9.47;85.68;100128.25;4956307;29;20476;-80
2022/12/29 09:06:02;;;;;;;9.70;1.55;;;;;;;9.44;86.24;100143.94;4955841;28;20069;-80
2022/12/29 09:08:27;;;;;;;8.45;1.80;;;;;;;9.34;85.76;100117.16;4955210;29;20059;-79
2022/12/29 09:10:53;;;;;;;9.50;2.50;;;;;;;9.41;85.51;100135.59;4957149;29;20050;-80
2022/12/29 09:13:18;;;;;;;6.50;1.92;;;;;;;9.39;85.62;100140.84;4937617;29;20403;-79
2022/12/29 09:15:44;;;;;;;11.57;2.35;;;;;;;9.52;85.44;100140.81;4955905;29;20039;-79
2022/12/29 09:18:11;;;;;;;9.00;1.75;;;;;;;9.55;85.52;100144.97;4956146;29;20087;-79
2022/12/29 09:20:36;;;;;;;7.53;2.58;;;;;;;9.55;85.25;100148.34;4955939;29;20467;-80
2022/12/29 09:23:02;;;;;;;10.63;1.90;;;;;;;9.61;85.55;100136.78;4956038;29;20055;-78
2022/12/29 09:25:28;;;;;;;9.98;2.17;;;;;;;9.60;86.40;100153.19;4955669;29;20379;-79
2022/12/29 09:27:53;;;;;;;11.07;2.15;;;;;;;9.58;85.95;100139.59;4938571;29;20035;-79
2022/12/29 09:30:20;;;;;;;10.90;2.17;;;;;;;9.66;88.37;100169.06;4955598;28;20399;-79
2022/12/29 09:32:46;;;;;;;8.68;1.55;;;;;;;9.55;89.67;100168.16;4955737;29;20038;-78
2022/12/29 09:35:13;;;;;;;9.02;2.10;;;;;;;9.52;90.21;100158.03;4955754;29;20019;-77
2022/12/29 09:37:38;;;;;;;10.15;2.15;;;;;;;9.45;90.29;100170.53;4955855;29;20453;-80
2022/12/29 09:40:05;;;;;;;7.28;1.77;;;;;;;9.28;90.67;100166.53;4955241;29;20158;-79
2022/12/29 09:42:55;;;;;;;7.63;1.55;;;;;;;9.38;90.70;100198.47;4937714;29;20399;-80
2022/12/29 09:45:29;;;;;;;7.97;1.70;;;;;;;9.25;91.56;100169.31;4956048;29;20479;-79
2022/12/29 09:47:54;;;;;;;10.40;1.70;;;;;;;9.19;92.61;100182.63;4955468;29;20031;-78
2022/12/29 09:50:19;;;;;;;7.07;1.50;;;;;;;9.10;94.30;100198.69;4955212;29;20034;-79
2022/12/29 09:52:51;;;;;;;10.57;2.03;;;;;;;8.89;95.17;100188.06;4937386;29;20078;-78
2022/12/29 09:55:20;;;;;;;6.13;1.50;;;;;;;8.98;96.38;100204.66;4955326;29;20023;-79
2022/12/29 09:57:56;;;;;;;10.07;1.70;;;;;;;8.90;97.47;100193.09;4955470;29;20030;-82
2022/12/29 10:00:27;;;;;;;8.25;1.77;;;;;;;8.83;96.73;100197.00;4955315;29;20023;-80
2022/12/29 10:02:58;;;;;;;;;;;;;;;8.94;98.07;100210.91;4955608;29;20027;-81
2022/12/29 10:05:38;;;;;;;10.93;2.47;;;;;;;8.64;98.08;100204.28;4955271;29;19958;-81
2022/12/29 10:08:06;;;;;;;6.93;1.48;;;;;;;8.74;99.73;100236.22;4955163;29;20126;-78
2022/12/29 10:10:45;;;;;;;12.27;2.17;;;;;;;8.69;100.00;100245.19;4955196;29;20027;-75
2022/12/29 10:13:22;;;;;;;7.43;1.52;;;;;;;8.75;100.00;100237.91;4954989;29;20475;-82
2022/12/29 10:15:56;;;;;;;8.02;1.60;;;;;;;8.75;100.00;100253.34;4937263;29;20035;-82
2022/12/29 10:18:40;;;;;;;5.63;2.10;;;;;;;8.73;100.00;100247.44;4954322;28;20097;-81
2022/12/29 10:21:20;;;;;;;6.15;2.00;;;;;;;8.70;100.00;100255.38;4954920;29;20386;-79
2022/12/29 10:23:51;;;;;;;9.52;1.70;;;;;;;8.73;100.00;100272.34;4954711;29;20027;-80
2022/12/29 10:26:20;;;;;;;10.07;1.98;;;;;;;8.53;100.00;100245.31;4954804;29;20407;-81
2022/12/29 10:28:52;;;;;;;6.95;2.00;;;;;;;8.63;100.00;100275.50;4954833;29;20143;-80
2022/12/29 10:31:21;;;;;;;10.38;1.92;;;;;;;8.47;100.00;100267.13;4954803;29;20039;-80
2022/12/29 10:33:52;;;;;;;9.15;2.00;;;;;;;8.52;100.00;100277.13;4954855;29;20086;-80
2022/12/29 10:36:43;;;;;;;9.52;2.45;;;;;;;8.54;100.00;100303.56;4954656;29;20027;-81
2022/12/29 10:39:11;;;;;;;8.27;2.10;;;;;;;8.55;100.00;100300.94;4895733;29;20076;-78
2022/12/29 10:41:43;;;;;;;10.27;2.28;;;;;;;8.59;100.00;100297.22;4895640;29;20037;-81
2022/12/29 10:44:13;;;;;;;9.43;2.08;;;;;;;8.59;100.00;100311.84;4895320;29;20143;-80
2022/12/29 10:46:38;;;;;;;11.80;2.40;;;;;;;8.62;100.00;100311.66;4895608;29;20028;-81
2022/12/29 10:49:10;;;;;;;9.77;2.00;;;;;;;8.65;100.00;100308.06;4878436;29;20092;-77
2022/12/29 10:51:39;;;;;;;10.98;2.65;;;;;;;8.53;100.00;100301.94;4896082;29;20612;-80
2022/12/29 10:54:14;;;;;;;11.30;2.80;;;;;;;8.51;100.00;100304.59;4895785;29;20040;-80
2022/12/29 10:56:46;;;;;;;8.10;2.20;;;;;;;8.50;100.00;100323.53;4895204;29;20492;-80
2022/12/29 10:59:28;;;;;;;9.30;2.28;;;;;;;8.56;100.00;100319.78;4895370;29;20540;-77
2022/12/29 11:02:11;;;;;;;7.65;2.67;;;;;;;8.57;100.00;100329.97;4895280;29;20039;-79
2022/12/29 11:04:55;;;;;;;8.82;2.35;;;;;;;8.67;100.00;100326.81;4879556;29;20495;-80
2022/12/29 11:07:21;;;;;;;12.88;2.58;;;;;;;8.70;100.00;100335.16;4895380;29;20029;-81
2022/12/29 11:09:47;;;;;;;9.85;3.15;;;;;;;8.71;100.00;100338.56;4895417;29;20393;-79
2022/12/29 11:12:23;;;;;;;10.77;2.95;;;;;;;8.80;100.00;100351.69;4895577;29;20040;-81
2022/12/29 11:15:09;;;;;;;10.65;2.50;;;;;;;8.90;100.00;100349.34;4895183;29;20041;-79
2022/12/29 11:18:03;;;;;;;8.88;2.55;;;;;;;8.92;100.00;100339.78;4952896;29;20035;-79
2022/12/29 11:20:33;;;;;;;12.13;2.60;;;;;;;8.74;100.00;100330.63;4894790;29;20040;-80
2022/12/29 11:23:00;;;;;;;10.80;2.35;;;;;;;8.81;100.00;100350.75;4895218;29;20036;-80
2022/12/29 11:25:26;;;;;;;10.80;3.03;;;;;;;8.74;100.00;100346.91;4895215;29;20052;-80
2022/12/29 11:28:15;;;;;;;10.55;3.15;;;;;;;8.75;100.00;100337.44;4895308;29;20087;-79
2022/12/29 11:30:41;;;;;;;10.77;2.60;;;;;;;8.91;100.00;100364.69;4860433;29;20045;-79
2022/12/29 11:33:09;;;;;;;10.07;2.58;;;;;;;8.82;100.00;100349.81;4848053;29;20141;-80
2022/12/29 11:35:42;;;;;;;11.00;3.20;;;;;;;8.85;100.00;100369.44;4843002;29;20105;-79
2022/12/29 11:38:21;;;;;;;10.70;2.80;;;;;;;8.84;100.00;100372.91;4843082;29;20080;-80
2022/12/29 11:40:48;;;;;;;15.25;3.45;;;;;;;8.90;100.00;100375.94;4827212;29;20042;-78
2022/12/29 11:43:36;;;;;;;10.60;2.92;;;;;;;9.08;100.00;100380.84;4842958;29;20046;-77
2022/12/29 11:46:03;;;;;;;10.27;2.70;;;;;;;9.26;98.99;100377.09;4842573;29;20453;-79
2022/12/29 11:48:47;;;;;;;12.02;2.58;;;;;;;9.30;97.63;100373.38;4842993;29;20042;-79
2022/12/29 11:51:21;;;;;;;13.25;2.67;;;;;;;9.15;97.57;100354.59;4842979;29;20402;-78
2022/12/29 11:53:51;;;;;;;11.95;2.63;;;;;;;9.27;96.88;100367.59;4827192;29;20398;-80
2022/12/29 11:56:22;;;;;;;11.32;2.60;;;;;;;9.33;97.40;100391.19;4851207;29;20046;-77
2022/12/29 11:58:49;;;;;;;8.57;2.30;;;;;;;9.36;96.74;100388.44;4880499;29;20398;-79
2022/12/29 12:01:34;;;;;;;11.27;2.58;;;;;;;9.38;96.55;100393.50;4879564;29;20075;-78
2022/12/29 12:04:05;;;;;;;13.23;3.25;;;;;;;9.42;96.69;100392.38;4879514;29;20029;-78
2022/12/29 12:06:35;;;;;;;11.50;2.55;;;;;;;9.41;95.94;100399.28;4881249;29;20032;-78
2022/12/29 12:09:10;;;;;;;12.38;2.38;;;;;;;9.28;96.29;100382.97;4938098;29;20538;-79
2022/12/29 12:11:41;;;;;;;11.95;2.65;;;;;;;9.37;97.00;100405.56;4938095;29;20086;-79
2022/12/29 12:14:28;;;;;;;13.45;2.70;;;;;;;9.40;96.18;100397.63;4920581;29;20035;-78
2022/12/29 12:16:59;;;;;;;13.10;3.40;;;;;;;9.44;96.13;100393.94;4937886;29;20126;-78